Time;durP1;ratioP1;P1;durP2;ratioP2;P2;SDS_P1;SDS_P2;PMS_P1;PMS_P2;Temp;Humidity;BMP_temperature;BMP_pressure;BME280_temperature;BME280_humidity;BME280_pressure;Samples;Min_cycle;Max_cycle;Signal;HPM_P1;HPM_P2
2024/01/24 00:00:29;;;;;;;;;;;17.20;43.10;;;;;;1575105;74;696;-70
2024/01/24 00:02:31;;;;;;;;;;;17.20;43.10;;;;;;1577690;74;717;-68
2024/01/24 00:04:33;;;;;;;;;;;17.20;43.10;;;;;;1563864;75;792;-71
2024/01/24 00:06:37;;;;;;;;;;;17.20;43.10;;;;;;1556194;74;724;-71
2024/01/24 00:08:39;;;;;;;;;;;17.20;43.10;;;;;;1570946;74;1464;-70
2024/01/24 00:10:41;;;;;;;;;;;17.20;43.10;;;;;;1567904;74;749;-71
2024/01/24 00:12:43;;;;;;;;;;;17.20;43.10;;;;;;1573645;74;715;-71
2024/01/24 00:14:45;;;;;;;;;;;17.20;43.10;;;;;;1559610;75;1937;-67
2024/01/24 00:16:47;;;;;;;;;;;17.20;43.10;;;;;;1573925;74;612;-70
2024/01/24 00:18:49;;;;;;;;;;;17.20;43.10;;;;;;1572889;74;1167;-70
2024/01/24 00:20:51;;;;;;;;;;;17.20;43.10;;;;;;1571397;74;680;-70
2024/01/24 00:22:53;;;;;;;;;;;17.20;43.10;;;;;;1559691;74;685;-70
2024/01/24 00:24:55;;;;;;;;;;;17.20;43.10;;;;;;1563790;74;701;-69
2024/01/24 00:26:57;;;;;;;;;;;17.30;43.20;;;;;;1570339;74;766;-69
2024/01/24 00:28:59;;;;;;;;;;;17.20;43.10;;;;;;1563078;74;1135;-69
2024/01/24 00:31:01;;;;;;;;;;;17.20;43.10;;;;;;1562555;74;668;-69
2024/01/24 00:33:03;;;;;;;;;;;17.20;43.10;;;;;;1569547;74;620;-70
2024/01/24 00:35:05;;;;;;;;;;;17.20;43.10;;;;;;1554187;74;1962;-70
2024/01/24 00:37:07;;;;;;;;;;;17.20;43.10;;;;;;1569988;74;833;-71
2024/01/24 00:39:09;;;;;;;;;;;17.30;43.20;;;;;;1572470;75;1110;-69
2024/01/24 00:41:11;;;;;;;;;;;17.10;43.10;;;;;;1572938;74;706;-72
2024/01/24 00:43:13;;;;;;;;;;;17.20;43.10;;;;;;1564475;74;671;-70
2024/01/24 00:45:15;;;;;;;;;;;17.20;43.10;;;;;;1574041;75;680;-69
2024/01/24 00:47:17;;;;;;;;;;;17.20;43.10;;;;;;1570668;74;715;-70
2024/01/24 00:49:19;;;;;;;;;;;17.20;43.10;;;;;;1564213;74;1147;-67
2024/01/24 00:51:21;;;;;;;;;;;17.20;43.10;;;;;;1566497;74;652;-69
2024/01/24 00:53:23;;;;;;;;;;;17.30;43.20;;;;;;1572360;74;678;-70
2024/01/24 00:55:26;;;;;;;;;;;17.20;43.00;;;;;;1569804;74;1922;-70
2024/01/24 00:57:28;;;;;;;;;;;17.20;43.10;;;;;;1572484;75;662;-70
2024/01/24 00:59:30;;;;;;;;;;;17.30;43.10;;;;;;1573906;75;1136;-68
2024/01/24 01:01:32;;;;;;;;;;;17.20;43.10;;;;;;1568407;74;727;-68
2024/01/24 01:03:34;;;;;;;;;;;17.20;43.10;;;;;;1571842;74;1298;-70
2024/01/24 01:05:37;;;;;;;;;;;17.20;43.00;;;;;;1567914;74;680;-69
2024/01/24 01:07:39;;;;;;;;;;;17.20;43.10;;;;;;1569406;74;687;-66
2024/01/24 01:09:41;;;;;;;;;;;17.20;43.10;;;;;;1570482;74;1117;-65
2024/01/24 01:11:43;;;;;;;;;;;17.20;43.10;;;;;;1568245;74;719;-71
2024/01/24 01:13:45;;;;;;;;;;;17.20;43.10;;;;;;1562409;75;727;-67
2024/01/24 01:15:47;;;;;;;;;;;17.20;43.00;;;;;;1569866;74;1928;-71
2024/01/24 01:17:48;;;;;;;;;;;17.20;43.10;;;;;;1574313;74;702;-69
2024/01/24 01:19:50;;;;;;;;;;;17.20;43.10;;;;;;1566011;74;1171;-67
2024/01/24 01:21:52;;;;;;;;;;;17.20;43.10;;;;;;1561990;74;792;-68
2024/01/24 01:23:54;;;;;;;;;;;17.20;43.10;;;;;;1559983;74;669;-70
2024/01/24 01:25:56;;;;;;;;;;;17.20;43.10;;;;;;1572564;74;810;-71
2024/01/24 01:27:58;;;;;;;;;;;17.20;43.10;;;;;;1564688;74;1134;-69
2024/01/24 01:30:00;;;;;;;;;;;17.20;43.10;;;;;;1565125;74;743;-67
2024/01/24 01:32:02;;;;;;;;;;;17.20;43.10;;;;;;1563916;74;739;-72
2024/01/24 01:34:04;;;;;;;;;;;17.20;43.10;;;;;;1565112;75;755;-69
2024/01/24 01:36:06;;;;;;;;;;;17.20;43.10;;;;;;1559745;74;1932;-70
2024/01/24 01:38:08;;;;;;;;;;;17.20;43.10;;;;;;1568509;74;1112;-69
2024/01/24 01:40:10;;;;;;;;;;;17.20;43.10;;;;;;1571707;74;666;-69
2024/01/24 01:42:12;;;;;;;;;;;17.20;43.10;;;;;;1566932;74;681;-68
2024/01/24 01:44:14;;;;;;;;;;;17.20;43.10;;;;;;1567346;74;520;-69
2024/01/24 01:46:19;;;;;;;;;;;17.20;43.10;;;;;;1563502;74;826;-70
2024/01/24 01:48:21;;;;;;;;;;;17.20;43.10;;;;;;1570569;74;1089;-68
2024/01/24 01:50:22;;;;;;;;;;;17.20;43.10;;;;;;1564773;74;663;-69
2024/01/24 01:52:24;;;;;;;;;;;17.20;43.10;;;;;;1575611;74;621;-69
2024/01/24 01:54:27;;;;;;;;;;;17.20;43.00;;;;;;1571341;75;852;-69
2024/01/24 01:56:29;;;;;;;;;;;17.20;43.10;;;;;;1565245;74;1914;-69
2024/01/24 01:58:30;;;;;;;;;;;17.20;43.10;;;;;;1567913;74;1126;-68
2024/01/24 02:00:38;;;;;;;;;;;17.20;43.10;;;;;;1572185;74;1342;-72
2024/01/24 02:02:40;;;;;;;;;;;17.20;43.10;;;;;;1560756;74;796;-70
2024/01/24 02:04:42;;;;;;;;;;;17.20;43.10;;;;;;1569834;74;797;-69
2024/01/24 02:06:44;;;;;;;;;;;17.20;43.10;;;;;;1569344;74;590;-71
2024/01/24 02:08:45;;;;;;;;;;;17.20;43.10;;;;;;1570582;74;1169;-71
2024/01/24 02:10:47;;;;;;;;;;;17.20;43.10;;;;;;1570257;74;741;-70
2024/01/24 02:12:49;;;;;;;;;;;17.20;43.10;;;;;;1574067;74;792;-72
2024/01/24 02:14:51;;;;;;;;;;;17.20;43.10;;;;;;1566973;74;709;-71
2024/01/24 02:16:54;;;;;;;;;;;17.30;43.20;;;;;;1569517;74;1927;-71
2024/01/24 02:18:56;;;;;;;;;;;17.20;43.10;;;;;;1575260;74;1148;-72
2024/01/24 02:20:58;;;;;;;;;;;17.20;43.10;;;;;;1567086;74;837;-69
2024/01/24 02:23:00;;;;;;;;;;;17.20;43.10;;;;;;1569696;74;547;-68
2024/01/24 02:25:02;;;;;;;;;;;17.20;43.10;;;;;;1566819;74;697;-70
2024/01/24 02:27:04;;;;;;;;;;;17.30;43.20;;;;;;1569850;74;678;-71
2024/01/24 02:29:06;;;;;;;;;;;17.20;43.10;;;;;;1563902;74;1137;-71
2024/01/24 02:31:08;;;;;;;;;;;17.20;43.10;;;;;;1570502;75;647;-71
2024/01/24 02:33:10;;;;;;;;;;;17.20;43.10;;;;;;1568431;75;722;-70
2024/01/24 02:35:12;;;;;;;;;;;17.20;43.10;;;;;;1570398;75;665;-71
2024/01/24 02:37:15;;;;;;;;;;;17.20;43.10;;;;;;1565765;74;1938;-68
2024/01/24 02:39:17;;;;;;;;;;;17.20;43.10;;;;;;1561342;74;1146;-68
2024/01/24 02:41:20;;;;;;;;;;;17.20;43.10;;;;;;1571390;74;778;-68
2024/01/24 02:43:22;;;;;;;;;;;17.20;43.10;;;;;;1570755;74;696;-69
2024/01/24 02:45:24;;;;;;;;;;;17.20;43.10;;;;;;1572315;75;729;-68
2024/01/24 02:47:26;;;;;;;;;;;17.20;43.10;;;;;;1567477;74;717;-70
2024/01/24 02:49:28;;;;;;;;;;;17.20;43.10;;;;;;1571218;74;1140;-71
2024/01/24 02:51:30;;;;;;;;;;;17.20;43.10;;;;;;1573977;74;717;-69
2024/01/24 02:53:32;;;;;;;;;;;17.20;43.10;;;;;;1557752;74;699;-72
2024/01/24 02:55:34;;;;;;;;;;;17.20;43.10;;;;;;1575223;75;694;-70
2024/01/24 02:57:36;;;;;;;;;;;17.20;43.10;;;;;;1566263;75;1946;-69
2024/01/24 02:59:37;;;;;;;;;;;17.20;43.10;;;;;;1566290;74;1161;-67
2024/01/24 03:01:40;;;;;;;;;;;17.10;43.10;;;;;;1564260;74;727;-70
2024/01/24 03:03:43;;;;;;;;;;;17.20;43.20;;;;;;1573762;75;539;-68
2024/01/24 03:05:45;;;;;;;;;;;17.20;43.20;;;;;;1570663;74;786;-71
2024/01/24 03:07:47;;;;;;;;;;;17.20;43.20;;;;;;1570942;74;693;-73
2024/01/24 03:09:49;;;;;;;;;;;17.20;43.20;;;;;;1563940;74;1132;-72
2024/01/24 03:11:51;;;;;;;;;;;17.10;43.20;;;;;;1570684;74;718;-66
2024/01/24 03:13:53;;;;;;;;;;;17.10;43.20;;;;;;1551243;74;740;-72
2024/01/24 03:15:55;;;;;;;;;;;17.20;43.20;;;;;;1568710;75;1894;-66
2024/01/24 03:17:57;;;;;;;;;;;17.20;43.20;;;;;;1569742;74;1157;-70
2024/01/24 03:19:59;;;;;;;;;;;17.20;43.20;;;;;;1561189;74;813;-71
2024/01/24 03:22:01;;;;;;;;;;;17.10;43.20;;;;;;1574077;74;696;-71
2024/01/24 03:24:03;;;;;;;;;;;17.20;43.20;;;;;;1570893;74;713;-69
2024/01/24 03:26:08;;;;;;;;;;;17.10;43.20;;;;;;1570838;74;798;-70
2024/01/24 03:28:09;;;;;;;;;;;17.20;43.30;;;;;;1563212;74;1106;-70
2024/01/24 03:30:12;;;;;;;;;;;17.10;43.20;;;;;;1561456;74;679;-71
2024/01/24 03:32:14;;;;;;;;;;;17.20;43.30;;;;;;1565863;74;687;-71
2024/01/24 03:34:16;;;;;;;;;;;17.20;43.20;;;;;;1572768;74;689;-68
2024/01/24 03:36:18;;;;;;;;;;;17.20;43.20;;;;;;1565389;74;1938;-69
2024/01/24 03:38:20;;;;;;;;;;;17.10;43.20;;;;;;1565645;74;1159;-67
2024/01/24 03:40:22;;;;;;;;;;;17.10;43.20;;;;;;1557281;74;763;-69
2024/01/24 03:42:24;;;;;;;;;;;17.20;43.30;;;;;;1560716;74;668;-68
2024/01/24 03:44:25;;;;;;;;;;;17.20;43.30;;;;;;1564486;74;676;-72
2024/01/24 03:46:27;;;;;;;;;;;17.10;43.30;;;;;;1567905;75;791;-69
2024/01/24 03:48:29;;;;;;;;;;;17.10;43.30;;;;;;1569237;75;1166;-71
2024/01/24 03:50:31;;;;;;;;;;;17.20;43.30;;;;;;1563878;74;691;-69
2024/01/24 03:52:33;;;;;;;;;;;17.20;43.30;;;;;;1576655;74;1470;-70
2024/01/24 03:54:35;;;;;;;;;;;17.10;43.30;;;;;;1561074;74;580;-72
2024/01/24 03:56:37;;;;;;;;;;;17.10;43.30;;;;;;1567880;74;1949;-70
2024/01/24 03:58:39;;;;;;;;;;;17.20;43.30;;;;;;1568904;74;1109;-72
2024/01/24 04:00:41;;;;;;;;;;;17.10;43.30;;;;;;1567470;74;665;-70
2024/01/24 04:02:43;;;;;;;;;;;17.20;43.30;;;;;;1564264;74;658;-71
2024/01/24 04:04:45;;;;;;;;;;;17.10;43.30;;;;;;1565986;74;667;-73
2024/01/24 04:06:47;;;;;;;;;;;17.10;43.30;;;;;;1565846;74;786;-73
2024/01/24 04:08:49;;;;;;;;;;;17.10;43.30;;;;;;1562544;74;1125;-67
2024/01/24 04:10:51;;;;;;;;;;;17.10;43.40;;;;;;1575702;74;758;-68
2024/01/24 04:12:52;;;;;;;;;;;17.10;43.30;;;;;;1568876;74;703;-70
2024/01/24 04:14:54;;;;;;;;;;;17.10;43.30;;;;;;1569784;75;663;-71
2024/01/24 04:16:56;;;;;;;;;;;17.20;43.30;;;;;;1572715;74;1946;-70
2024/01/24 04:18:58;;;;;;;;;;;17.20;43.40;;;;;;1575428;74;1120;-70
2024/01/24 04:21:01;;;;;;;;;;;17.10;43.40;;;;;;1569352;74;693;-69
2024/01/24 04:23:03;;;;;;;;;;;17.10;43.30;;;;;;1578010;74;664;-68
2024/01/24 04:25:05;;;;;;;;;;;17.10;43.40;;;;;;1567999;74;657;-71
2024/01/24 04:27:07;;;;;;;;;;;17.20;43.40;;;;;;1568982;74;672;-69
2024/01/24 04:29:09;;;;;;;;;;;17.20;43.40;;;;;;1563204;74;1094;-70
2024/01/24 04:31:10;;;;;;;;;;;17.10;43.40;;;;;;1569294;75;662;-73
2024/01/24 04:33:14;;;;;;;;;;;17.20;43.40;;;;;;1567514;74;667;-71
2024/01/24 04:35:15;;;;;;;;;;;17.10;43.40;;;;;;1578233;74;776;-69
2024/01/24 04:37:17;;;;;;;;;;;17.20;43.40;;;;;;1574498;74;1938;-71
2024/01/24 04:39:20;;;;;;;;;;;17.10;43.40;;;;;;1569503;74;1077;-70
2024/01/24 04:41:22;;;;;;;;;;;17.10;43.40;;;;;;1567905;74;658;-69
2024/01/24 04:43:24;;;;;;;;;;;17.10;43.40;;;;;;1564895;74;545;-69
2024/01/24 04:45:26;;;;;;;;;;;17.20;43.40;;;;;;1564226;74;579;-67
2024/01/24 04:47:28;;;;;;;;;;;17.10;43.40;;;;;;1565426;74;776;-69
2024/01/24 04:49:29;;;;;;;;;;;17.10;43.40;;;;;;1563743;75;1652;-69
2024/01/24 04:51:31;;;;;;;;;;;17.10;43.40;;;;;;1563002;74;671;-71
2024/01/24 04:53:33;;;;;;;;;;;17.10;43.40;;;;;;1566694;74;683;-69
2024/01/24 04:55:35;;;;;;;;;;;17.20;43.40;;;;;;1574119;75;683;-69
2024/01/24 04:57:37;;;;;;;;;;;17.10;43.40;;;;;;1572743;74;1938;-70
2024/01/24 04:59:41;;;;;;;;;;;17.20;43.40;;;;;;1573510;74;1085;-72
2024/01/24 05:01:43;;;;;;;;;;;17.20;43.40;;;;;;1561692;74;793;-73
2024/01/24 05:03:45;;;;;;;;;;;17.10;43.40;;;;;;1561228;74;785;-70
2024/01/24 05:05:47;;;;;;;;;;;17.20;43.40;;;;;;1571244;74;836;-71
2024/01/24 05:07:49;;;;;;;;;;;17.10;43.40;;;;;;1557116;75;711;-68
2024/01/24 05:09:51;;;;;;;;;;;17.10;43.40;;;;;;1562860;74;1153;-71
2024/01/24 05:11:52;;;;;;;;;;;17.10;43.50;;;;;;1568638;74;643;-71
2024/01/24 05:13:59;;;;;;;;;;;17.10;43.50;;;;;;1566773;74;736;-70
2024/01/24 05:15:58;;;;;;;;;;;17.10;43.40;;;;;;1563046;74;1600;-69
2024/01/24 05:18:00;;;;;;;;;;;17.10;43.40;;;;;;1568768;74;1938;-68
2024/01/24 05:20:02;;;;;;;;;;;17.10;43.40;;;;;;1567608;74;922;-71
2024/01/24 05:22:04;;;;;;;;;;;17.10;43.40;;;;;;1573081;74;752;-71
2024/01/24 05:24:06;;;;;;;;;;;17.10;43.40;;;;;;1558404;75;739;-70
2024/01/24 05:26:08;;;;;;;;;;;17.20;43.40;;;;;;1570550;74;705;-71
2024/01/24 05:28:14;;;;;;;;;;;17.20;43.50;;;;;;1567341;75;1247;-73
2024/01/24 05:30:16;;;;;;;;;;;17.10;43.40;;;;;;1559933;74;750;-70
2024/01/24 05:32:18;;;;;;;;;;;17.10;43.40;;;;;;1565242;74;672;-71
2024/01/24 05:34:20;;;;;;;;;;;17.10;43.50;;;;;;1570550;74;572;-71
2024/01/24 05:36:22;;;;;;;;;;;17.10;43.50;;;;;;1574248;74;573;-71
2024/01/24 05:38:24;;;;;;;;;;;17.10;43.50;;;;;;1575095;74;1930;-71
2024/01/24 05:40:26;;;;;;;;;;;17.20;43.50;;;;;;1569593;74;782;-68
2024/01/24 05:42:28;;;;;;;;;;;17.10;43.50;;;;;;1572828;74;666;-69
2024/01/24 05:44:30;;;;;;;;;;;17.20;43.50;;;;;;1576493;74;660;-71
2024/01/24 05:46:32;;;;;;;;;;;17.10;43.50;;;;;;1562519;74;1496;-69
2024/01/24 05:48:34;;;;;;;;;;;17.10;43.50;;;;;;1558528;74;1114;-72
2024/01/24 05:50:35;;;;;;;;;;;17.20;43.50;;;;;;1555050;75;696;-69
2024/01/24 05:52:39;;;;;;;;;;;17.10;43.50;;;;;;1575342;74;681;-72
2024/01/24 05:54:41;;;;;;;;;;;17.20;43.50;;;;;;1579139;74;725;-71
2024/01/24 05:56:42;;;;;;;;;;;17.10;43.60;;;;;;1563156;74;1945;-71
2024/01/24 05:58:44;;;;;;;;;;;17.10;43.50;;;;;;1557621;74;1110;-73
2024/01/24 06:00:46;;;;;;;;;;;17.20;43.50;;;;;;1569991;74;918;-71
2024/01/24 06:02:48;;;;;;;;;;;17.10;43.50;;;;;;1575943;74;769;-68
2024/01/24 06:04:50;;;;;;;;;;;17.10;43.50;;;;;;1567743;74;753;-71
2024/01/24 06:06:54;;;;;;;;;;;17.20;43.50;;;;;;1565725;74;758;-70
2024/01/24 06:08:55;;;;;;;;;;;17.10;43.50;;;;;;1567658;74;1655;-71
2024/01/24 06:10:57;;;;;;;;;;;17.10;43.50;;;;;;1571055;74;676;-71
2024/01/24 06:12:59;;;;;;;;;;;17.10;43.50;;;;;;1563994;74;721;-67
2024/01/24 06:15:02;;;;;;;;;;;17.10;43.50;;;;;;1559822;74;742;-70
2024/01/24 06:17:04;;;;;;;;;;;17.10;43.50;;;;;;1562782;74;1924;-69
2024/01/24 06:19:06;;;;;;;;;;;17.20;43.50;;;;;;1565577;74;1177;-69
2024/01/24 06:21:09;;;;;;;;;;;17.10;43.50;;;;;;1558070;74;680;-69
2024/01/24 06:23:11;;;;;;;;;;;17.20;43.60;;;;;;1561174;75;608;-71
2024/01/24 06:25:13;;;;;;;;;;;17.20;43.50;;;;;;1568240;75;663;-69
2024/01/24 06:27:15;;;;;;;;;;;17.10;43.60;;;;;;1575841;74;626;-70
2024/01/24 06:29:19;;;;;;;;;;;17.10;43.50;;;;;;1567226;74;1134;-70
2024/01/24 06:31:20;;;;;;;;;;;16.90;43.50;;;;;;1572468;74;660;-69
2024/01/24 06:33:24;;;;;;;;;;;17.10;43.50;;;;;;1565139;74;690;-70
2024/01/24 06:35:26;;;;;;;;;;;17.10;43.50;;;;;;1565281;74;677;-68
2024/01/24 06:37:27;;;;;;;;;;;17.10;43.50;;;;;;1568219;74;1930;-69
2024/01/24 06:39:29;;;;;;;;;;;17.10;43.50;;;;;;1568805;74;1128;-65
2024/01/24 06:41:31;;;;;;;;;;;17.20;43.50;;;;;;1564922;74;1336;-68
2024/01/24 06:43:35;;;;;;;;;;;17.10;43.50;;;;;;1571612;74;885;-70
2024/01/24 06:45:37;;;;;;;;;;;17.10;43.60;;;;;;1563330;74;671;-70
2024/01/24 06:47:39;;;;;;;;;;;17.10;43.50;;;;;;1571781;74;722;-70
2024/01/24 06:49:41;;;;;;;;;;;17.10;43.60;;;;;;1569887;74;1112;-70
2024/01/24 06:51:42;;;;;;;;;;;17.10;43.50;;;;;;1557867;74;677;-68
2024/01/24 06:53:44;;;;;;;;;;;17.10;43.60;;;;;;1565631;75;748;-70
2024/01/24 06:55:46;;;;;;;;;;;17.20;43.60;;;;;;1571710;75;694;-70
2024/01/24 06:57:48;;;;;;;;;;;17.10;43.60;;;;;;1558218;74;1929;-69
2024/01/24 06:59:50;;;;;;;;;;;17.20;43.60;;;;;;1565546;74;1122;-67
2024/01/24 07:01:52;;;;;;;;;;;17.10;43.60;;;;;;1570462;74;770;-67
2024/01/24 07:03:54;;;;;;;;;;;17.20;43.60;;;;;;1574334;74;665;-69
2024/01/24 07:05:56;;;;;;;;;;;17.10;43.60;;;;;;1568980;74;589;-70
2024/01/24 07:07:57;;;;;;;;;;;17.10;43.50;;;;;;1567057;74;1182;-68
2024/01/24 07:09:59;;;;;;;;;;;17.10;43.60;;;;;;1569984;74;697;-65
2024/01/24 07:12:02;;;;;;;;;;;17.10;43.60;;;;;;1565248;74;724;-66
2024/01/24 07:14:04;;;;;;;;;;;17.10;43.50;;;;;;1572872;74;698;-68
2024/01/24 07:16:07;;;;;;;;;;;17.10;43.60;;;;;;1564573;74;705;-69
2024/01/24 07:18:13;;;;;;;;;;;17.10;43.60;;;;;;1573483;74;1915;-70
2024/01/24 07:20:13;;;;;;;;;;;17.10;43.50;;;;;;1569442;74;1472;-70
2024/01/24 07:22:15;;;;;;;;;;;17.10;43.60;;;;;;1563317;74;801;-70
2024/01/24 07:24:17;;;;;;;;;;;17.10;43.60;;;;;;1574978;74;676;-70
2024/01/24 07:26:19;;;;;;;;;;;17.10;43.50;;;;;;1573816;74;756;-70
2024/01/24 07:28:22;;;;;;;;;;;17.20;43.60;;;;;;1573515;74;1157;-69
2024/01/24 07:30:24;;;;;;;;;;;17.20;43.60;;;;;;1572414;74;763;-72
2024/01/24 07:32:27;;;;;;;;;;;17.20;43.60;;;;;;1566484;74;829;-69
2024/01/24 07:34:29;;;;;;;;;;;17.20;43.60;;;;;;1570109;75;643;-71
2024/01/24 07:36:31;;;;;;;;;;;17.10;43.60;;;;;;1570675;74;750;-71
2024/01/24 07:38:34;;;;;;;;;;;17.10;43.60;;;;;;1567725;74;1914;-72
2024/01/24 07:40:37;;;;;;;;;;;17.20;43.60;;;;;;1570621;74;745;-71
2024/01/24 07:42:39;;;;;;;;;;;17.10;43.60;;;;;;1560727;75;622;-69
2024/01/24 07:44:41;;;;;;;;;;;17.10;43.60;;;;;;1575193;74;634;-66
2024/01/24 07:46:43;;;;;;;;;;;17.10;43.60;;;;;;1573972;74;885;-69
2024/01/24 07:48:45;;;;;;;;;;;17.10;43.60;;;;;;1571266;75;1069;-67
2024/01/24 07:50:47;;;;;;;;;;;17.10;43.60;;;;;;1562023;74;736;-68
2024/01/24 07:52:49;;;;;;;;;;;17.10;43.60;;;;;;1566692;74;759;-69
2024/01/24 07:54:51;;;;;;;;;;;17.10;43.60;;;;;;1571055;74;784;-68
2024/01/24 07:56:53;;;;;;;;;;;17.20;43.60;;;;;;1568492;74;756;-69
2024/01/24 07:58:55;;;;;;;;;;;17.10;43.60;;;;;;1565610;75;1922;-71
2024/01/24 08:00:57;;;;;;;;;;;17.10;43.60;;;;;;1564498;74;679;-67
2024/01/24 08:02:58;;;;;;;;;;;17.10;43.60;;;;;;1555581;74;683;-70
2024/01/24 08:05:00;;;;;;;;;;;17.10;43.60;;;;;;1573535;74;757;-70
2024/01/24 08:07:04;;;;;;;;;;;17.20;43.60;;;;;;1573571;75;852;-68
2024/01/24 08:09:06;;;;;;;;;;;17.10;43.60;;;;;;1569736;74;1146;-71
2024/01/24 08:11:08;;;;;;;;;;;17.10;43.60;;;;;;1560518;74;670;-69
2024/01/24 08:13:10;;;;;;;;;;;17.20;43.60;;;;;;1568015;74;705;-70
2024/01/24 08:15:12;;;;;;;;;;;17.20;43.60;;;;;;1577600;74;675;-67
2024/01/24 08:17:14;;;;;;;;;;;17.10;43.60;;;;;;1567037;74;692;-68
2024/01/24 08:19:16;;;;;;;;;;;17.20;43.60;;;;;;1570476;74;1926;-70
2024/01/24 08:21:18;;;;;;;;;;;17.20;43.60;;;;;;1565685;74;667;-72
2024/01/24 08:23:20;;;;;;;;;;;17.10;43.10;;;;;;1561559;74;791;-72
2024/01/24 08:25:22;;;;;;;;;;;17.10;43.00;;;;;;1565238;74;795;-69
2024/01/24 08:27:24;;;;;;;;;;;17.00;43.40;;;;;;1568636;74;741;-67
2024/01/24 08:29:26;;;;;;;;;;;16.90;44.20;;;;;;1562900;74;1134;-66
2024/01/24 08:31:28;;;;;;;;;;;16.90;44.40;;;;;;1565025;74;794;-67
2024/01/24 08:33:32;;;;;;;;;;;17.00;44.30;;;;;;1569673;74;1548;-67
2024/01/24 08:35:35;;;;;;;;;;;17.00;44.20;;;;;;1573987;74;1679;-68
2024/01/24 08:37:37;;;;;;;;;;;17.00;44.20;;;;;;1568890;74;574;-70
2024/01/24 08:39:40;;;;;;;;;;;17.00;44.10;;;;;;1570838;74;1928;-69
2024/01/24 08:41:42;;;;;;;;;;;17.10;44.20;;;;;;1566145;74;817;-68
2024/01/24 08:43:44;;;;;;;;;;;17.00;43.20;;;;;;1562659;74;756;-71
2024/01/24 08:45:45;;;;;;;;;;;17.00;43.80;;;;;;1560603;74;734;-67
2024/01/24 08:47:47;;;;;;;;;;;16.90;43.90;;;;;;1559820;74;684;-70
2024/01/24 08:49:50;;;;;;;;;;;17.00;44.00;;;;;;1573009;74;1038;-70
2024/01/24 08:51:52;;;;;;;;;;;17.00;44.00;;;;;;1580165;74;780;-69
2024/01/24 08:53:54;;;;;;;;;;;17.10;44.10;;;;;;1573622;74;767;-69
2024/01/24 08:55:56;;;;;;;;;;;17.10;44.10;;;;;;1574995;74;715;-68
2024/01/24 08:57:58;;;;;;;;;;;17.00;44.00;;;;;;1570239;74;1929;-70
2024/01/24 09:00:00;;;;;;;;;;;17.00;44.10;;;;;;1567051;74;765;-69
2024/01/24 09:02:04;;;;;;;;;;;17.10;44.10;;;;;;1578906;74;788;-68
2024/01/24 09:04:06;;;;;;;;;;;17.10;44.10;;;;;;1575874;73;1678;-69
2024/01/24 09:06:08;;;;;;;;;;;17.00;44.00;;;;;;1579960;74;686;-69
2024/01/24 09:08:10;;;;;;;;;;;17.00;44.00;;;;;;1567831;74;1175;-68
2024/01/24 09:10:12;;;;;;;;;;;17.10;44.20;;;;;;1573559;74;729;-68
2024/01/24 09:12:14;;;;;;;;;;;17.10;44.10;;;;;;1567036;74;813;-70
2024/01/24 09:14:16;;;;;;;;;;;17.10;44.20;;;;;;1568565;74;659;-69
2024/01/24 09:16:18;;;;;;;;;;;17.10;44.10;;;;;;1572648;74;766;-69
2024/01/24 09:18:20;;;;;;;;;;;17.10;44.20;;;;;;1574630;74;1942;-69
2024/01/24 09:20:22;;;;;;;;;;;17.10;44.20;;;;;;1563297;74;806;-68
2024/01/24 09:22:24;;;;;;;;;;;17.20;44.10;;;;;;1572954;74;708;-71
2024/01/24 09:24:26;;;;;;;;;;;17.10;44.20;;;;;;1569822;74;693;-69
2024/01/24 09:26:27;;;;;;;;;;;17.10;44.20;;;;;;1573012;74;646;-68
2024/01/24 09:28:29;;;;;;;;;;;17.10;44.10;;;;;;1569708;74;1209;-69
2024/01/24 09:30:31;;;;;;;;;;;17.20;44.20;;;;;;1570011;74;1587;-70
2024/01/24 09:32:33;;;;;;;;;;;17.10;44.10;;;;;;1571171;74;795;-67
2024/01/24 09:34:35;;;;;;;;;;;17.10;44.20;;;;;;1566036;74;714;-69
2024/01/24 09:36:37;;;;;;;;;;;17.10;44.10;;;;;;1571354;74;717;-69
2024/01/24 09:38:39;;;;;;;;;;;17.10;44.20;;;;;;1559614;74;1948;-69
2024/01/24 09:40:41;;;;;;;;;;;17.20;44.20;;;;;;1563472;74;738;-68
2024/01/24 09:42:43;;;;;;;;;;;17.20;44.20;;;;;;1565669;74;767;-69
2024/01/24 09:44:48;;;;;;;;;;;17.20;44.20;;;;;;1575820;74;684;-69
2024/01/24 09:46:53;;;;;;;;;;;17.20;44.20;;;;;;1567171;74;625;-71
2024/01/24 09:48:54;;;;;;;;;;;17.20;44.20;;;;;;1561622;74;1516;-69
2024/01/24 09:50:55;;;;;;;;;;;17.20;44.20;;;;;;1575746;74;735;-66
2024/01/24 09:52:57;;;;;;;;;;;17.20;44.20;;;;;;1570946;74;709;-68
2024/01/24 09:55:06;;;;;;;;;;;17.20;44.20;;;;;;1572975;74;753;-70
2024/01/24 09:57:08;;;;;;;;;;;17.10;44.20;;;;;;1563914;74;921;-68
2024/01/24 09:59:09;;;;;;;;;;;17.10;44.20;;;;;;1572586;74;1954;-69
2024/01/24 10:01:16;;;;;;;;;;;17.20;44.20;;;;;;1571527;74;724;-70
2024/01/24 10:03:15;;;;;;;;;;;17.20;44.20;;;;;;1564590;74;1622;-68
2024/01/24 10:05:17;;;;;;;;;;;17.20;44.20;;;;;;1575822;74;768;-70
2024/01/24 10:07:19;;;;;;;;;;;17.20;44.20;;;;;;1555218;74;709;-69
2024/01/24 10:09:21;;;;;;;;;;;17.20;44.30;;;;;;1568485;74;1148;-68
2024/01/24 10:11:25;;;;;;;;;;;17.20;44.30;;;;;;1570604;74;800;-69
2024/01/24 10:13:27;;;;;;;;;;;17.10;43.80;;;;;;1561568;74;1404;-70
2024/01/24 10:15:30;;;;;;;;;;;17.20;44.00;;;;;;1567660;74;669;-69
2024/01/24 10:17:32;;;;;;;;;;;17.20;44.20;;;;;;1563285;74;737;-70
2024/01/24 10:19:33;;;;;;;;;;;17.10;44.20;;;;;;1561530;74;1934;-73
2024/01/24 10:21:35;;;;;;;;;;;17.10;44.30;;;;;;1564904;74;658;-73
2024/01/24 10:23:38;;;;;;;;;;;17.10;44.20;;;;;;1563613;74;842;-75
2024/01/24 10:25:41;;;;;;;;;;;17.20;44.20;;;;;;1569710;74;697;-74
2024/01/24 10:27:43;;;;;;;;;;;17.20;44.20;;;;;;1567697;74;1533;-71
2024/01/24 10:29:45;;;;;;;;;;;17.20;44.20;;;;;;1568863;74;1138;-74
2024/01/24 10:31:47;;;;;;;;;;;17.20;44.30;;;;;;1569486;74;738;-71
2024/01/24 10:33:49;;;;;;;;;;;17.20;44.20;;;;;;1570807;74;770;-72
2024/01/24 10:35:51;;;;;;;;;;;17.20;44.20;;;;;;1570474;74;848;-72
2024/01/24 10:37:53;;;;;;;;;;;17.20;44.20;;;;;;1565193;74;693;-73
2024/01/24 10:39:55;;;;;;;;;;;17.20;44.20;;;;;;1563153;74;1950;-74
2024/01/24 10:41:57;;;;;;;;;;;17.20;44.20;;;;;;1566239;74;663;-70
2024/01/24 10:44:00;;;;;;;;;;;17.20;44.30;;;;;;1563959;73;735;-73
2024/01/24 10:46:03;;;;;;;;;;;17.20;44.20;;;;;;1575284;74;2059;-72
2024/01/24 10:48:06;;;;;;;;;;;17.20;44.20;;;;;;1574139;74;1147;-74
2024/01/24 10:50:09;;;;;;;;;;;17.20;44.20;;;;;;1567799;74;604;-74
2024/01/24 10:52:11;;;;;;;;;;;17.20;44.20;;;;;;1569693;74;744;-75
2024/01/24 10:54:15;;;;;;;;;;;17.20;44.20;;;;;;1572521;74;729;-74
2024/01/24 10:56:17;;;;;;;;;;;17.20;44.20;;;;;;1568413;74;727;-72
2024/01/24 10:58:19;;;;;;;;;;;17.20;44.20;;;;;;1568510;74;1156;-75
2024/01/24 11:00:22;;;;;;;;;;;17.20;44.20;;;;;;1568385;74;1942;-75
2024/01/24 11:02:24;;;;;;;;;;;17.20;44.20;;;;;;1571919;74;723;-75
2024/01/24 11:04:26;;;;;;;;;;;17.20;44.20;;;;;;1563355;74;746;-74
2024/01/24 11:06:28;;;;;;;;;;;17.20;44.20;;;;;;1566517;74;852;-73
2024/01/24 11:08:48;;;;;;;;;;;17.20;44.20;;;;;;1573100;74;1149;-73
2024/01/24 11:10:47;;;;;;;;;;;17.20;44.20;;;;;;1541882;74;1582;-72
2024/01/24 11:12:49;;;;;;;;;;;17.20;44.20;;;;;;1569123;74;617;-73
2024/01/24 11:14:52;;;;;;;;;;;17.20;44.20;;;;;;1568956;74;701;-73
2024/01/24 11:16:54;;;;;;;;;;;17.20;44.20;;;;;;1570371;74;683;-73
2024/01/24 11:19:03;;;;;;;;;;;17.20;44.20;;;;;;1571303;74;1942;-75
2024/01/24 11:21:03;;;;;;;;;;;17.20;44.20;;;;;;1575023;74;1204;-74
2024/01/24 11:23:06;;;;;;;;;;;17.20;44.20;;;;;;1581831;74;1540;-73
2024/01/24 11:25:10;;;;;;;;;;;17.20;44.30;;;;;;1565125;74;1710;-71
2024/01/24 11:27:33;;;;;;;;;;;17.20;44.40;;;;;;1568994;74;713;-73
2024/01/24 11:29:35;;;;;;;;;;;17.20;44.30;;;;;;1567727;74;1180;-73
2024/01/24 11:31:37;;;;;;;;;;;17.20;44.40;;;;;;1570267;74;866;-73
2024/01/24 11:33:57;;;;;;;;;;;17.20;44.40;;;;;;1570102;74;662;-72
2024/01/24 11:36:01;;;;;;;;;;;17.20;44.20;;;;;;1570508;74;735;-72
2024/01/24 11:38:20;;;;;;;;;;;17.20;44.30;;;;;;1578818;74;1131;-70
2024/01/24 11:40:23;;;;;;;;;;;17.20;44.30;;;;;;1572602;74;1912;-73
2024/01/24 11:42:27;;;;;;;;;;;17.20;44.40;;;;;;1573854;74;667;-73
2024/01/24 11:44:28;;;;;;;;;;;17.20;44.30;;;;;;1575381;74;800;-71
2024/01/24 11:46:30;;;;;;;;;;;17.20;44.30;;;;;;1569348;74;661;-72
2024/01/24 11:48:33;;;;;;;;;;;17.20;44.30;;;;;;1562800;74;1082;-72
2024/01/24 11:50:34;;;;;;;;;;;17.20;44.30;;;;;;1570677;75;739;-73
2024/01/24 11:52:36;;;;;;;;;;;17.30;44.40;;;;;;1578816;74;754;-73
2024/01/24 11:54:38;;;;;;;;;;;17.30;44.40;;;;;;1579896;74;663;-72
2024/01/24 11:56:40;;;;;;;;;;;17.20;44.30;;;;;;1568964;74;673;-74
2024/01/24 11:58:42;;;;;;;;;;;17.30;44.40;;;;;;1562171;74;1140;-73
2024/01/24 12:00:44;;;;;;;;;;;17.30;44.50;;;;;;1572651;74;1950;-73
2024/01/24 12:02:46;;;;;;;;;;;17.20;44.30;;;;;;1562852;74;759;-74
2024/01/24 12:04:51;;;;;;;;;;;17.30;44.40;;;;;;1563247;74;898;-69
2024/01/24 12:06:53;;;;;;;;;;;17.30;44.40;;;;;;1563636;74;991;-74
2024/01/24 12:08:55;;;;;;;;;;;17.20;44.30;;;;;;1574474;74;1113;-74